sensor_id;sensor_type;location;lat;lon;timestamp;P1;durP1;ratioP1;P2;durP2;ratioP2
21330;SDS011;10824;51.632;4.950;2023-04-08T00:00:14;14.90;;;6.07;;
21330;SDS011;10824;51.632;4.950;2023-04-08T00:02:41;17.02;;;6.32;;
21330;SDS011;10824;51.632;4.950;2023-04-08T00:05:09;15.38;;;6.15;;
21330;SDS011;10824;51.632;4.950;2023-04-08T00:07:36;18.40;;;8.00;;
21330;SDS011;10824;51.632;4.950;2023-04-08T00:10:03;16.35;;;6.22;;
21330;SDS011;10824;51.632;4.950;2023-04-08T00:12:32;14.07;;;5.32;;
21330;SDS011;10824;51.632;4.950;2023-04-08T00:14:59;16.63;;;6.63;;
21330;SDS011;10824;51.632;4.950;2023-04-08T00:17:26;12.65;;;5.63;;
21330;SDS011;10824;51.632;4.950;2023-04-08T00:19:53;14.93;;;6.97;;
21330;SDS011;10824;51.632;4.950;2023-04-08T00:22:21;15.15;;;5.82;;
21330;SDS011;10824;51.632;4.950;2023-04-08T00:24:48;25.45;;;6.72;;
21330;SDS011;10824;51.632;4.950;2023-04-08T00:27:15;19.67;;;7.32;;
21330;SDS011;10824;51.632;4.950;2023-04-08T00:29:42;14.70;;;6.65;;
21330;SDS011;10824;51.632;4.950;2023-04-08T00:32:09;16.55;;;7.40;;
21330;SDS011;10824;51.632;4.950;2023-04-08T00:34:36;17.40;;;8.10;;
21330;SDS011;10824;51.632;4.950;2023-04-08T00:37:03;17.80;;;6.60;;
21330;SDS011;10824;51.632;4.950;2023-04-08T00:39:31;17.17;;;6.38;;
21330;SDS011;10824;51.632;4.950;2023-04-08T00:41:59;20.52;;;6.97;;
21330;SDS011;10824;51.632;4.950;2023-04-08T00:44:27;12.80;;;5.97;;
21330;SDS011;10824;51.632;4.950;2023-04-08T00:46:55;12.73;;;6.38;;
21330;SDS011;10824;51.632;4.950;2023-04-08T00:49:22;14.50;;;6.95;;
21330;SDS011;10824;51.632;4.950;2023-04-08T00:51:52;22.00;;;7.28;;
21330;SDS011;10824;51.632;4.950;2023-04-08T00:54:20;14.13;;;5.80;;
21330;SDS011;10824;51.632;4.950;2023-04-08T00:56:47;18.88;;;7.10;;
21330;SDS011;10824;51.632;4.950;2023-04-08T00:59:16;15.90;;;7.03;;
21330;SDS011;10824;51.632;4.950;2023-04-08T01:01:45;20.42;;;6.40;;
21330;SDS011;10824;51.632;4.950;2023-04-08T01:07:30;15.02;;;7.25;;
21330;SDS011;10824;51.632;4.950;2023-04-08T01:10:42;16.83;;;7.38;;
21330;SDS011;10824;51.632;4.950;2023-04-08T01:13:03;17.50;;;7.90;;
21330;SDS011;10824;51.632;4.950;2023-04-08T01:15:34;15.43;;;6.40;;
21330;SDS011;10824;51.632;4.950;2023-04-08T01:18:05;17.00;;;6.20;;
21330;SDS011;10824;51.632;4.950;2023-04-08T01:20:33;17.85;;;7.28;;
21330;SDS011;10824;51.632;4.950;2023-04-08T01:23:22;18.45;;;7.78;;
21330;SDS011;10824;51.632;4.950;2023-04-08T01:26:12;17.23;;;6.85;;
21330;SDS011;10824;51.632;4.950;2023-04-08T01:28:51;21.85;;;7.00;;
21330;SDS011;10824;51.632;4.950;2023-04-08T01:31:23;13.02;;;6.75;;
21330;SDS011;10824;51.632;4.950;2023-04-08T01:33:51;20.27;;;7.95;;
21330;SDS011;10824;51.632;4.950;2023-04-08T01:36:20;17.45;;;7.80;;
21330;SDS011;10824;51.632;4.950;2023-04-08T01:38:49;17.65;;;7.82;;
21330;SDS011;10824;51.632;4.950;2023-04-08T01:41:17;22.75;;;7.25;;
21330;SDS011;10824;51.632;4.950;2023-04-08T01:43:45;17.67;;;7.10;;
21330;SDS011;10824;51.632;4.950;2023-04-08T01:46:13;16.30;;;7.35;;
21330;SDS011;10824;51.632;4.950;2023-04-08T01:48:41;13.70;;;6.05;;
21330;SDS011;10824;51.632;4.950;2023-04-08T01:51:08;15.88;;;6.45;;
21330;SDS011;10824;51.632;4.950;2023-04-08T01:53:37;16.27;;;6.63;;
21330;SDS011;10824;51.632;4.950;2023-04-08T01:56:05;14.30;;;6.50;;
21330;SDS011;10824;51.632;4.950;2023-04-08T01:58:44;15.23;;;6.50;;
21330;SDS011;10824;51.632;4.950;2023-04-08T02:01:16;23.48;;;7.03;;
21330;SDS011;10824;51.632;4.950;2023-04-08T02:03:44;14.88;;;6.55;;
21330;SDS011;10824;51.632;4.950;2023-04-08T02:06:12;15.50;;;6.43;;
21330;SDS011;10824;51.632;4.950;2023-04-08T02:08:40;17.30;;;8.10;;
21330;SDS011;10824;51.632;4.950;2023-04-08T02:11:07;15.93;;;6.70;;
21330;SDS011;10824;51.632;4.950;2023-04-08T02:13:34;19.77;;;7.40;;
21330;SDS011;10824;51.632;4.950;2023-04-08T02:16:14;18.25;;;6.85;;
21330;SDS011;10824;51.632;4.950;2023-04-08T02:18:46;16.23;;;7.57;;
21330;SDS011;10824;51.632;4.950;2023-04-08T02:21:21;10.25;;;5.78;;
21330;SDS011;10824;51.632;4.950;2023-04-08T02:23:58;18.30;;;8.02;;
21330;SDS011;10824;51.632;4.950;2023-04-08T02:26:31;17.77;;;6.78;;
21330;SDS011;10824;51.632;4.950;2023-04-08T02:29:01;18.92;;;7.45;;
21330;SDS011;10824;51.632;4.950;2023-04-08T02:31:31;23.05;;;8.07;;
21330;SDS011;10824;51.632;4.950;2023-04-08T02:33:59;18.35;;;8.55;;
21330;SDS011;10824;51.632;4.950;2023-04-08T02:36:29;20.23;;;8.95;;
21330;SDS011;10824;51.632;4.950;2023-04-08T02:39:02;19.58;;;7.28;;
21330;SDS011;10824;51.632;4.950;2023-04-08T02:41:29;17.80;;;7.93;;
21330;SDS011;10824;51.632;4.950;2023-04-08T02:43:56;17.40;;;6.90;;
21330;SDS011;10824;51.632;4.950;2023-04-08T02:46:24;22.48;;;8.35;;
21330;SDS011;10824;51.632;4.950;2023-04-08T02:48:51;19.67;;;7.38;;
21330;SDS011;10824;51.632;4.950;2023-04-08T02:51:19;16.70;;;6.55;;
21330;SDS011;10824;51.632;4.950;2023-04-08T02:53:46;14.40;;;7.72;;
21330;SDS011;10824;51.632;4.950;2023-04-08T02:56:13;15.32;;;7.90;;
21330;SDS011;10824;51.632;4.950;2023-04-08T02:58:40;19.10;;;8.63;;
21330;SDS011;10824;51.632;4.950;2023-04-08T03:01:07;18.50;;;7.85;;
21330;SDS011;10824;51.632;4.950;2023-04-08T03:03:34;19.05;;;7.78;;
21330;SDS011;10824;51.632;4.950;2023-04-08T03:06:03;20.05;;;7.68;;
21330;SDS011;10824;51.632;4.950;2023-04-08T03:08:30;20.92;;;9.02;;
21330;SDS011;10824;51.632;4.950;2023-04-08T03:10:59;22.55;;;8.30;;
21330;SDS011;10824;51.632;4.950;2023-04-08T03:13:26;16.08;;;7.45;;
21330;SDS011;10824;51.632;4.950;2023-04-08T03:15:54;15.77;;;6.68;;
21330;SDS011;10824;51.632;4.950;2023-04-08T03:18:21;18.33;;;7.93;;
21330;SDS011;10824;51.632;4.950;2023-04-08T03:20:48;19.98;;;7.68;;
21330;SDS011;10824;51.632;4.950;2023-04-08T03:23:17;22.35;;;8.30;;
21330;SDS011;10824;51.632;4.950;2023-04-08T03:25:44;19.45;;;7.97;;
21330;SDS011;10824;51.632;4.950;2023-04-08T03:28:11;17.02;;;8.95;;
21330;SDS011;10824;51.632;4.950;2023-04-08T03:30:38;22.50;;;9.05;;
21330;SDS011;10824;51.632;4.950;2023-04-08T03:33:05;26.80;;;7.25;;
21330;SDS011;10824;51.632;4.950;2023-04-08T03:35:33;19.17;;;7.57;;
21330;SDS011;10824;51.632;4.950;2023-04-08T03:38:00;17.10;;;7.68;;
21330;SDS011;10824;51.632;4.950;2023-04-08T03:40:27;29.77;;;9.38;;
21330;SDS011;10824;51.632;4.950;2023-04-08T03:42:54;17.00;;;7.35;;
21330;SDS011;10824;51.632;4.950;2023-04-08T03:45:21;20.45;;;7.65;;
21330;SDS011;10824;51.632;4.950;2023-04-08T03:47:49;18.80;;;9.73;;
21330;SDS011;10824;51.632;4.950;2023-04-08T03:50:16;17.65;;;7.57;;
21330;SDS011;10824;51.632;4.950;2023-04-08T03:52:42;19.38;;;8.40;;
21330;SDS011;10824;51.632;4.950;2023-04-08T03:55:10;17.58;;;7.78;;
21330;SDS011;10824;51.632;4.950;2023-04-08T03:57:36;19.65;;;8.18;;
21330;SDS011;10824;51.632;4.950;2023-04-08T04:00:04;16.30;;;8.80;;
21330;SDS011;10824;51.632;4.950;2023-04-08T04:02:37;19.85;;;8.00;;
21330;SDS011;10824;51.632;4.950;2023-04-08T04:05:04;17.30;;;7.63;;
21330;SDS011;10824;51.632;4.950;2023-04-08T04:07:32;18.75;;;7.03;;
21330;SDS011;10824;51.632;4.950;2023-04-08T04:09:59;20.10;;;7.60;;
21330;SDS011;10824;51.632;4.950;2023-04-08T04:12:26;23.58;;;8.43;;
21330;SDS011;10824;51.632;4.950;2023-04-08T04:14:53;23.00;;;7.78;;
21330;SDS011;10824;51.632;4.950;2023-04-08T04:17:20;27.05;;;8.50;;
21330;SDS011;10824;51.632;4.950;2023-04-08T04:19:47;19.27;;;8.40;;
21330;SDS011;10824;51.632;4.950;2023-04-08T04:22:14;20.63;;;8.63;;
21330;SDS011;10824;51.632;4.950;2023-04-08T04:24:45;16.65;;;7.03;;
21330;SDS011;10824;51.632;4.950;2023-04-08T04:27:13;27.88;;;7.88;;
21330;SDS011;10824;51.632;4.950;2023-04-08T04:29:42;22.58;;;8.52;;
21330;SDS011;10824;51.632;4.950;2023-04-08T04:32:09;23.33;;;9.80;;
21330;SDS011;10824;51.632;4.950;2023-04-08T04:34:38;18.55;;;9.48;;
21330;SDS011;10824;51.632;4.950;2023-04-08T04:37:05;20.25;;;9.48;;
21330;SDS011;10824;51.632;4.950;2023-04-08T04:39:32;19.70;;;9.27;;
21330;SDS011;10824;51.632;4.950;2023-04-08T04:41:59;26.27;;;11.82;;
21330;SDS011;10824;51.632;4.950;2023-04-08T04:44:26;23.88;;;10.32;;
21330;SDS011;10824;51.632;4.950;2023-04-08T04:46:53;20.45;;;10.27;;
21330;SDS011;10824;51.632;4.950;2023-04-08T04:49:20;22.73;;;9.40;;
21330;SDS011;10824;51.632;4.950;2023-04-08T04:51:47;22.70;;;9.98;;
21330;SDS011;10824;51.632;4.950;2023-04-08T04:54:14;22.95;;;10.30;;
21330;SDS011;10824;51.632;4.950;2023-04-08T04:56:42;24.13;;;10.35;;
21330;SDS011;10824;51.632;4.950;2023-04-08T04:59:09;22.08;;;10.07;;
21330;SDS011;10824;51.632;4.950;2023-04-08T05:01:36;28.08;;;11.32;;
21330;SDS011;10824;51.632;4.950;2023-04-08T05:04:03;24.42;;;8.88;;
21330;SDS011;10824;51.632;4.950;2023-04-08T05:06:30;21.88;;;7.97;;
21330;SDS011;10824;51.632;4.950;2023-04-08T05:08:57;22.70;;;8.18;;
21330;SDS011;10824;51.632;4.950;2023-04-08T05:11:24;25.48;;;8.88;;
21330;SDS011;10824;51.632;4.950;2023-04-08T05:13:51;19.60;;;7.85;;
21330;SDS011;10824;51.632;4.950;2023-04-08T05:16:18;22.13;;;9.15;;
21330;SDS011;10824;51.632;4.950;2023-04-08T05:18:45;20.40;;;8.85;;
21330;SDS011;10824;51.632;4.950;2023-04-08T05:21:12;25.05;;;9.95;;
21330;SDS011;10824;51.632;4.950;2023-04-08T05:23:39;24.83;;;7.72;;
21330;SDS011;10824;51.632;4.950;2023-04-08T05:26:06;20.55;;;8.95;;
21330;SDS011;10824;51.632;4.950;2023-04-08T05:28:34;23.35;;;10.07;;
21330;SDS011;10824;51.632;4.950;2023-04-08T05:31:02;25.80;;;10.00;;
21330;SDS011;10824;51.632;4.950;2023-04-08T05:33:29;16.58;;;8.75;;
21330;SDS011;10824;51.632;4.950;2023-04-08T05:35:56;23.70;;;8.48;;
21330;SDS011;10824;51.632;4.950;2023-04-08T05:38:23;23.05;;;9.63;;
21330;SDS011;10824;51.632;4.950;2023-04-08T05:40:50;25.05;;;10.75;;
21330;SDS011;10824;51.632;4.950;2023-04-08T05:43:18;20.48;;;9.88;;
21330;SDS011;10824;51.632;4.950;2023-04-08T05:45:45;44.97;;;9.90;;
21330;SDS011;10824;51.632;4.950;2023-04-08T05:48:12;24.25;;;10.45;;
21330;SDS011;10824;51.632;4.950;2023-04-08T05:50:39;29.65;;;10.05;;
21330;SDS011;10824;51.632;4.950;2023-04-08T05:53:08;26.67;;;11.07;;
21330;SDS011;10824;51.632;4.950;2023-04-08T05:55:35;24.92;;;10.82;;
21330;SDS011;10824;51.632;4.950;2023-04-08T05:58:02;22.88;;;9.23;;
21330;SDS011;10824;51.632;4.950;2023-04-08T06:00:29;26.20;;;10.02;;
21330;SDS011;10824;51.632;4.950;2023-04-08T06:02:56;24.27;;;10.05;;
21330;SDS011;10824;51.632;4.950;2023-04-08T06:05:23;22.02;;;9.40;;
21330;SDS011;10824;51.632;4.950;2023-04-08T06:07:51;22.08;;;10.40;;
21330;SDS011;10824;51.632;4.950;2023-04-08T06:10:18;23.83;;;10.85;;
21330;SDS011;10824;51.632;4.950;2023-04-08T06:12:45;25.58;;;10.60;;
21330;SDS011;10824;51.632;4.950;2023-04-08T06:15:12;20.92;;;8.38;;
21330;SDS011;10824;51.632;4.950;2023-04-08T06:17:39;19.98;;;10.88;;
21330;SDS011;10824;51.632;4.950;2023-04-08T06:20:06;26.30;;;9.52;;
21330;SDS011;10824;51.632;4.950;2023-04-08T06:22:36;22.52;;;9.30;;
21330;SDS011;10824;51.632;4.950;2023-04-08T06:25:04;21.95;;;8.95;;
21330;SDS011;10824;51.632;4.950;2023-04-08T06:27:32;22.27;;;9.27;;
21330;SDS011;10824;51.632;4.950;2023-04-08T06:29:59;26.27;;;11.75;;
21330;SDS011;10824;51.632;4.950;2023-04-08T06:32:26;21.15;;;9.27;;
21330;SDS011;10824;51.632;4.950;2023-04-08T06:34:53;22.83;;;11.02;;
21330;SDS011;10824;51.632;4.950;2023-04-08T06:37:20;25.85;;;10.27;;
21330;SDS011;10824;51.632;4.950;2023-04-08T06:39:48;21.42;;;10.30;;
21330;SDS011;10824;51.632;4.950;2023-04-08T06:42:16;15.60;;;8.00;;
21330;SDS011;10824;51.632;4.950;2023-04-08T06:44:57;21.33;;;9.15;;
21330;SDS011;10824;51.632;4.950;2023-04-08T06:47:24;23.63;;;9.88;;
21330;SDS011;10824;51.632;4.950;2023-04-08T06:49:51;21.13;;;9.73;;
21330;SDS011;10824;51.632;4.950;2023-04-08T06:52:19;20.95;;;8.07;;
21330;SDS011;10824;51.632;4.950;2023-04-08T06:54:46;16.52;;;6.80;;
21330;SDS011;10824;51.632;4.950;2023-04-08T06:57:13;19.52;;;7.35;;
21330;SDS011;10824;51.632;4.950;2023-04-08T06:59:41;19.75;;;8.93;;
21330;SDS011;10824;51.632;4.950;2023-04-08T07:02:08;15.95;;;6.65;;
21330;SDS011;10824;51.632;4.950;2023-04-08T07:04:35;17.95;;;8.27;;
21330;SDS011;10824;51.632;4.950;2023-04-08T07:07:02;14.15;;;7.72;;
21330;SDS011;10824;51.632;4.950;2023-04-08T07:09:29;21.88;;;8.38;;
21330;SDS011;10824;51.632;4.950;2023-04-08T07:11:56;13.35;;;7.63;;
21330;SDS011;10824;51.632;4.950;2023-04-08T07:14:25;22.60;;;9.55;;
21330;SDS011;10824;51.632;4.950;2023-04-08T07:16:52;17.63;;;7.45;;
21330;SDS011;10824;51.632;4.950;2023-04-08T07:19:19;15.07;;;8.05;;
21330;SDS011;10824;51.632;4.950;2023-04-08T07:21:46;19.42;;;8.55;;
21330;SDS011;10824;51.632;4.950;2023-04-08T07:24:13;17.98;;;8.60;;
21330;SDS011;10824;51.632;4.950;2023-04-08T07:26:41;16.88;;;8.18;;
21330;SDS011;10824;51.632;4.950;2023-04-08T07:29:09;19.95;;;8.10;;
21330;SDS011;10824;51.632;4.950;2023-04-08T07:31:36;18.63;;;7.90;;
21330;SDS011;10824;51.632;4.950;2023-04-08T07:34:04;19.95;;;9.93;;
21330;SDS011;10824;51.632;4.950;2023-04-08T07:36:31;17.83;;;9.73;;
21330;SDS011;10824;51.632;4.950;2023-04-08T07:38:58;20.75;;;8.85;;
21330;SDS011;10824;51.632;4.950;2023-04-08T07:41:26;17.67;;;8.25;;
21330;SDS011;10824;51.632;4.950;2023-04-08T07:43:53;19.85;;;7.60;;
21330;SDS011;10824;51.632;4.950;2023-04-08T07:46:22;22.13;;;8.63;;
21330;SDS011;10824;51.632;4.950;2023-04-08T07:48:50;18.73;;;7.70;;
21330;SDS011;10824;51.632;4.950;2023-04-08T07:51:17;19.52;;;8.63;;
21330;SDS011;10824;51.632;4.950;2023-04-08T07:53:46;18.48;;;8.68;;
21330;SDS011;10824;51.632;4.950;2023-04-08T07:56:14;17.40;;;7.30;;
21330;SDS011;10824;51.632;4.950;2023-04-08T07:58:44;19.17;;;8.77;;
21330;SDS011;10824;51.632;4.950;2023-04-08T08:01:19;24.88;;;10.02;;
21330;SDS011;10824;51.632;4.950;2023-04-08T08:03:48;20.85;;;8.85;;
21330;SDS011;10824;51.632;4.950;2023-04-08T08:06:18;17.02;;;8.48;;
21330;SDS011;10824;51.632;4.950;2023-04-08T08:08:46;15.00;;;7.03;;
21330;SDS011;10824;51.632;4.950;2023-04-08T08:11:14;18.58;;;8.40;;
21330;SDS011;10824;51.632;4.950;2023-04-08T08:13:41;17.17;;;7.55;;
21330;SDS011;10824;51.632;4.950;2023-04-08T08:16:09;14.35;;;8.43;;
21330;SDS011;10824;51.632;4.950;2023-04-08T08:18:38;16.83;;;7.63;;
21330;SDS011;10824;51.632;4.950;2023-04-08T08:21:07;17.90;;;7.15;;
21330;SDS011;10824;51.632;4.950;2023-04-08T08:23:35;22.23;;;7.60;;
21330;SDS011;10824;51.632;4.950;2023-04-08T08:26:04;16.80;;;6.95;;
21330;SDS011;10824;51.632;4.950;2023-04-08T08:28:36;14.63;;;6.75;;
21330;SDS011;10824;51.632;4.950;2023-04-08T08:31:04;17.02;;;7.13;;
21330;SDS011;10824;51.632;4.950;2023-04-08T08:33:32;18.23;;;7.20;;
21330;SDS011;10824;51.632;4.950;2023-04-08T08:36:01;13.05;;;5.03;;
21330;SDS011;10824;51.632;4.950;2023-04-08T08:38:31;12.45;;;5.80;;
21330;SDS011;10824;51.632;4.950;2023-04-08T08:40:59;11.30;;;5.07;;
21330;SDS011;10824;51.632;4.950;2023-04-08T08:43:27;12.52;;;6.28;;
21330;SDS011;10824;51.632;4.950;2023-04-08T08:45:55;12.65;;;6.38;;
21330;SDS011;10824;51.632;4.950;2023-04-08T08:48:24;15.63;;;7.78;;
21330;SDS011;10824;51.632;4.950;2023-04-08T08:50:52;15.23;;;7.38;;
21330;SDS011;10824;51.632;4.950;2023-04-08T08:53:19;16.10;;;6.85;;
21330;SDS011;10824;51.632;4.950;2023-04-08T08:55:48;14.25;;;5.97;;
21330;SDS011;10824;51.632;4.950;2023-04-08T08:58:35;14.80;;;5.88;;
21330;SDS011;10824;51.632;4.950;2023-04-08T09:04:17;14.75;;;6.82;;
21330;SDS011;10824;51.632;4.950;2023-04-08T09:06:47;12.60;;;5.90;;
21330;SDS011;10824;51.632;4.950;2023-04-08T09:09:16;13.07;;;5.63;;
21330;SDS011;10824;51.632;4.950;2023-04-08T09:11:44;10.10;;;5.22;;
21330;SDS011;10824;51.632;4.950;2023-04-08T09:16:49;11.90;;;5.97;;
21330;SDS011;10824;51.632;4.950;2023-04-08T09:19:17;10.55;;;5.75;;
21330;SDS011;10824;51.632;4.950;2023-04-08T09:21:44;10.88;;;5.18;;
21330;SDS011;10824;51.632;4.950;2023-04-08T09:24:28;10.10;;;5.63;;
21330;SDS011;10824;51.632;4.950;2023-04-08T09:26:56;11.13;;;4.93;;
21330;SDS011;10824;51.632;4.950;2023-04-08T09:29:24;13.70;;;6.25;;
21330;SDS011;10824;51.632;4.950;2023-04-08T09:32:00;16.60;;;6.00;;
21330;SDS011;10824;51.632;4.950;2023-04-08T09:34:28;11.60;;;5.75;;
21330;SDS011;10824;51.632;4.950;2023-04-08T09:36:57;11.20;;;5.10;;
21330;SDS011;10824;51.632;4.950;2023-04-08T09:39:24;7.72;;;4.43;;
21330;SDS011;10824;51.632;4.950;2023-04-08T09:41:52;11.63;;;5.88;;
21330;SDS011;10824;51.632;4.950;2023-04-08T09:44:22;10.88;;;5.53;;
21330;SDS011;10824;51.632;4.950;2023-04-08T09:49:45;10.85;;;5.07;;
21330;SDS011;10824;51.632;4.950;2023-04-08T09:55:07;13.90;;;5.53;;
21330;SDS011;10824;51.632;4.950;2023-04-08T10:00:24;9.23;;;4.93;;
21330;SDS011;10824;51.632;4.950;2023-04-08T10:03:09;10.02;;;4.65;;
21330;SDS011;10824;51.632;4.950;2023-04-08T10:05:40;10.05;;;4.68;;
21330;SDS011;10824;51.632;4.950;2023-04-08T10:08:08;9.63;;;5.03;;
21330;SDS011;10824;51.632;4.950;2023-04-08T10:10:39;10.23;;;5.32;;
21330;SDS011;10824;51.632;4.950;2023-04-08T10:13:07;10.70;;;4.85;;
21330;SDS011;10824;51.632;4.950;2023-04-08T10:15:35;7.13;;;4.10;;
21330;SDS011;10824;51.632;4.950;2023-04-08T10:23:02;10.10;;;4.95;;
21330;SDS011;10824;51.632;4.950;2023-04-08T10:25:36;8.82;;;4.53;;
21330;SDS011;10824;51.632;4.950;2023-04-08T10:30:44;11.75;;;5.03;;
21330;SDS011;10824;51.632;4.950;2023-04-08T10:33:20;9.00;;;5.57;;
21330;SDS011;10824;51.632;4.950;2023-04-08T10:35:59;10.30;;;4.80;;
21330;SDS011;10824;51.632;4.950;2023-04-08T10:38:26;8.98;;;4.85;;
21330;SDS011;10824;51.632;4.950;2023-04-08T10:40:54;12.48;;;5.43;;
21330;SDS011;10824;51.632;4.950;2023-04-08T10:43:21;11.30;;;5.07;;
21330;SDS011;10824;51.632;4.950;2023-04-08T10:45:49;10.05;;;4.78;;
21330;SDS011;10824;51.632;4.950;2023-04-08T10:48:22;10.23;;;4.70;;
21330;SDS011;10824;51.632;4.950;2023-04-08T10:50:51;10.40;;;5.00;;
21330;SDS011;10824;51.632;4.950;2023-04-08T10:56:10;14.82;;;5.20;;
21330;SDS011;10824;51.632;4.950;2023-04-08T10:58:47;9.50;;;4.50;;
21330;SDS011;10824;51.632;4.950;2023-04-08T11:01:25;12.77;;;6.32;;
21330;SDS011;10824;51.632;4.950;2023-04-08T11:03:53;10.20;;;5.47;;
21330;SDS011;10824;51.632;4.950;2023-04-08T11:06:20;10.10;;;4.85;;
21330;SDS011;10824;51.632;4.950;2023-04-08T11:08:48;10.77;;;5.07;;
21330;SDS011;10824;51.632;4.950;2023-04-08T11:11:15;11.20;;;5.38;;
21330;SDS011;10824;51.632;4.950;2023-04-08T11:13:44;10.60;;;5.10;;
21330;SDS011;10824;51.632;4.950;2023-04-08T11:16:22;11.65;;;5.15;;
21330;SDS011;10824;51.632;4.950;2023-04-08T11:18:49;10.25;;;5.50;;
21330;SDS011;10824;51.632;4.950;2023-04-08T11:21:18;12.85;;;5.05;;
21330;SDS011;10824;51.632;4.950;2023-04-08T11:23:48;12.27;;;5.43;;
21330;SDS011;10824;51.632;4.950;2023-04-08T11:26:17;9.00;;;5.32;;
21330;SDS011;10824;51.632;4.950;2023-04-08T11:28:45;10.70;;;5.57;;
21330;SDS011;10824;51.632;4.950;2023-04-08T11:31:14;10.48;;;4.97;;
21330;SDS011;10824;51.632;4.950;2023-04-08T11:33:46;9.02;;;4.68;;
21330;SDS011;10824;51.632;4.950;2023-04-08T11:36:18;10.65;;;5.35;;
21330;SDS011;10824;51.632;4.950;2023-04-08T11:38:47;10.40;;;4.85;;
21330;SDS011;10824;51.632;4.950;2023-04-08T11:41:14;9.23;;;4.93;;
21330;SDS011;10824;51.632;4.950;2023-04-08T11:43:52;13.20;;;5.15;;
21330;SDS011;10824;51.632;4.950;2023-04-08T11:46:20;11.18;;;5.68;;
21330;SDS011;10824;51.632;4.950;2023-04-08T11:48:58;9.38;;;4.53;;
21330;SDS011;10824;51.632;4.950;2023-04-08T11:51:54;10.23;;;5.00;;
21330;SDS011;10824;51.632;4.950;2023-04-08T11:54:28;10.18;;;4.80;;
21330;SDS011;10824;51.632;4.950;2023-04-08T11:56:57;10.65;;;4.68;;
21330;SDS011;10824;51.632;4.950;2023-04-08T11:59:29;9.60;;;5.25;;
21330;SDS011;10824;51.632;4.950;2023-04-08T12:01:57;10.27;;;5.25;;
21330;SDS011;10824;51.632;4.950;2023-04-08T12:04:24;9.90;;;5.80;;
21330;SDS011;10824;51.632;4.950;2023-04-08T12:06:52;10.77;;;5.43;;
21330;SDS011;10824;51.632;4.950;2023-04-08T12:09:20;9.15;;;5.38;;
21330;SDS011;10824;51.632;4.950;2023-04-08T12:11:48;8.98;;;4.72;;
21330;SDS011;10824;51.632;4.950;2023-04-08T12:14:15;10.90;;;5.40;;
21330;SDS011;10824;51.632;4.950;2023-04-08T12:16:42;11.55;;;5.72;;
21330;SDS011;10824;51.632;4.950;2023-04-08T12:19:09;10.32;;;5.18;;
21330;SDS011;10824;51.632;4.950;2023-04-08T12:21:36;8.35;;;5.00;;
21330;SDS011;10824;51.632;4.950;2023-04-08T12:24:04;11.00;;;5.45;;
21330;SDS011;10824;51.632;4.950;2023-04-08T12:26:31;8.30;;;4.35;;
21330;SDS011;10824;51.632;4.950;2023-04-08T12:28:59;10.88;;;5.20;;
21330;SDS011;10824;51.632;4.950;2023-04-08T12:31:27;8.38;;;4.35;;
21330;SDS011;10824;51.632;4.950;2023-04-08T12:33:54;9.88;;;4.88;;
21330;SDS011;10824;51.632;4.950;2023-04-08T12:36:22;11.75;;;6.47;;
21330;SDS011;10824;51.632;4.950;2023-04-08T12:38:50;11.05;;;5.10;;
21330;SDS011;10824;51.632;4.950;2023-04-08T12:41:17;9.88;;;5.13;;
21330;SDS011;10824;51.632;4.950;2023-04-08T12:43:44;10.32;;;5.25;;
21330;SDS011;10824;51.632;4.950;2023-04-08T12:46:11;19.08;;;8.23;;
21330;SDS011;10824;51.632;4.950;2023-04-08T12:48:38;12.93;;;5.93;;
21330;SDS011;10824;51.632;4.950;2023-04-08T12:51:06;12.27;;;6.05;;
21330;SDS011;10824;51.632;4.950;2023-04-08T12:53:35;7.18;;;4.85;;
21330;SDS011;10824;51.632;4.950;2023-04-08T12:56:02;11.32;;;5.80;;
21330;SDS011;10824;51.632;4.950;2023-04-08T12:58:32;12.45;;;5.05;;
21330;SDS011;10824;51.632;4.950;2023-04-08T13:01:00;12.73;;;5.88;;
21330;SDS011;10824;51.632;4.950;2023-04-08T13:03:27;12.68;;;5.18;;
21330;SDS011;10824;51.632;4.950;2023-04-08T13:05:57;10.80;;;5.38;;
21330;SDS011;10824;51.632;4.950;2023-04-08T13:08:24;12.55;;;5.93;;
21330;SDS011;10824;51.632;4.950;2023-04-08T13:10:51;13.35;;;6.85;;
21330;SDS011;10824;51.632;4.950;2023-04-08T13:13:19;12.05;;;6.05;;
21330;SDS011;10824;51.632;4.950;2023-04-08T13:15:46;12.15;;;5.07;;
21330;SDS011;10824;51.632;4.950;2023-04-08T13:18:14;8.07;;;5.25;;
21330;SDS011;10824;51.632;4.950;2023-04-08T13:20:41;8.48;;;4.63;;
21330;SDS011;10824;51.632;4.950;2023-04-08T13:23:08;10.13;;;4.63;;
21330;SDS011;10824;51.632;4.950;2023-04-08T13:25:35;10.20;;;4.97;;
21330;SDS011;10824;51.632;4.950;2023-04-08T13:28:02;9.25;;;5.43;;
21330;SDS011;10824;51.632;4.950;2023-04-08T13:30:29;10.38;;;5.63;;
21330;SDS011;10824;51.632;4.950;2023-04-08T13:32:56;21.88;;;10.30;;
21330;SDS011;10824;51.632;4.950;2023-04-08T13:35:24;14.75;;;6.80;;
21330;SDS011;10824;51.632;4.950;2023-04-08T13:37:52;23.27;;;11.23;;
21330;SDS011;10824;51.632;4.950;2023-04-08T13:40:19;69.75;;;29.05;;
21330;SDS011;10824;51.632;4.950;2023-04-08T13:42:46;25.17;;;10.98;;
21330;SDS011;10824;51.632;4.950;2023-04-08T13:45:14;23.33;;;10.95;;
21330;SDS011;10824;51.632;4.950;2023-04-08T13:47:41;13.23;;;6.78;;
21330;SDS011;10824;51.632;4.950;2023-04-08T13:50:08;22.88;;;10.18;;
21330;SDS011;10824;51.632;4.950;2023-04-08T13:52:35;38.08;;;15.55;;
21330;SDS011;10824;51.632;4.950;2023-04-08T13:55:02;37.53;;;14.93;;
21330;SDS011;10824;51.632;4.950;2023-04-08T13:57:30;15.20;;;6.00;;
21330;SDS011;10824;51.632;4.950;2023-04-08T13:59:57;14.90;;;7.07;;
21330;SDS011;10824;51.632;4.950;2023-04-08T14:02:24;12.07;;;5.45;;
21330;SDS011;10824;51.632;4.950;2023-04-08T14:04:51;13.85;;;6.20;;
21330;SDS011;10824;51.632;4.950;2023-04-08T14:07:18;9.18;;;4.75;;
21330;SDS011;10824;51.632;4.950;2023-04-08T14:09:47;10.02;;;5.95;;
21330;SDS011;10824;51.632;4.950;2023-04-08T14:12:14;11.68;;;5.38;;
21330;SDS011;10824;51.632;4.950;2023-04-08T14:14:41;11.32;;;5.80;;
21330;SDS011;10824;51.632;4.950;2023-04-08T14:17:08;9.63;;;5.32;;
21330;SDS011;10824;51.632;4.950;2023-04-08T14:19:35;20.98;;;5.32;;
21330;SDS011;10824;51.632;4.950;2023-04-08T14:22:02;10.73;;;4.32;;
21330;SDS011;10824;51.632;4.950;2023-04-08T14:24:29;8.68;;;4.97;;
21330;SDS011;10824;51.632;4.950;2023-04-08T14:26:56;10.20;;;5.47;;
21330;SDS011;10824;51.632;4.950;2023-04-08T14:29:23;8.48;;;4.38;;
21330;SDS011;10824;51.632;4.950;2023-04-08T14:31:52;7.72;;;4.50;;
21330;SDS011;10824;51.632;4.950;2023-04-08T14:34:19;9.05;;;4.68;;
21330;SDS011;10824;51.632;4.950;2023-04-08T14:36:46;14.23;;;6.32;;
21330;SDS011;10824;51.632;4.950;2023-04-08T14:39:15;8.20;;;5.63;;
21330;SDS011;10824;51.632;4.950;2023-04-08T14:41:42;8.30;;;4.50;;
21330;SDS011;10824;51.632;4.950;2023-04-08T14:44:09;9.38;;;4.75;;
21330;SDS011;10824;51.632;4.950;2023-04-08T14:46:36;9.30;;;4.32;;
21330;SDS011;10824;51.632;4.950;2023-04-08T14:49:03;9.00;;;4.38;;
21330;SDS011;10824;51.632;4.950;2023-04-08T14:51:31;10.38;;;5.53;;
21330;SDS011;10824;51.632;4.950;2023-04-08T14:53:58;7.38;;;5.07;;
21330;SDS011;10824;51.632;4.950;2023-04-08T14:56:27;9.48;;;4.20;;
21330;SDS011;10824;51.632;4.950;2023-04-08T14:58:54;8.38;;;3.95;;
21330;SDS011;10824;51.632;4.950;2023-04-08T15:01:21;9.43;;;4.35;;
21330;SDS011;10824;51.632;4.950;2023-04-08T15:03:48;8.45;;;4.05;;
21330;SDS011;10824;51.632;4.950;2023-04-08T15:06:15;6.22;;;3.65;;
21330;SDS011;10824;51.632;4.950;2023-04-08T15:08:43;9.35;;;4.25;;
21330;SDS011;10824;51.632;4.950;2023-04-08T15:11:11;7.22;;;3.85;;